| time (UTC) | temp F | wind direction | speed MPH | gust MPH | rain 1hr in | rain 24hr in | rain mn in | humidity % | barometer mb |
| 20260509011508 | 70 | 189 | 2.0 | 0.0 | 0.00 | 0.00 | 0.00 | 56 | 1023.9 |
| 20260509010012 | 69 | 180 | 2.0 | 0.0 | 0.00 | 0.00 | 0.00 | 56 | 1024.0 |
| 20260509004502 | 68 | 235 | 2.0 | 0.0 | 0.00 | 0.00 | 0.00 | 58 | 1024.2 |
| 20260509003134 | 67 | 267 | 2.0 | 0.0 | 0.00 | 0.00 | 0.00 | 60 | 1024.5 |
| 20260509001605 | 66 | 246 | 2.0 | 0.0 | 0.00 | 0.00 | 0.00 | 62 | 1024.5 |
| 20260509000108 | 65 | 321 | 2.0 | 0.0 | 0.00 | 0.00 | 0.00 | 68 | 1024.6 |
| 20260508234549 | 63 | 216 | 2.0 | 0.0 | 0.00 | 0.00 | 0.00 | 72 | 1024.6 |
| 20260508233047 | 60 | 174 | 2.0 | 0.0 | 0.00 | 0.00 | 0.00 | 75 | 1024.7 |
| 20260508231547 | 59 | 221 | 1.0 | 0.0 | 0.00 | 0.00 | 0.00 | 78 | 1024.6 |
| 20260508230037 | 57 | 337 | 1.0 | 0.0 | 0.00 | 0.00 | 0.00 | 81 | 1024.6 |
| 20260508224536 | 54 | 96 | 0.0 | 0.0 | 0.00 | 0.00 | 0.00 | 83 | 1024.6 |
| 20260508223029 | 52 | 95 | 0.0 | 0.0 | 0.00 | 0.00 | 0.00 | 90 | 1024.5 |
| 20260508221525 | 51 | 96 | 0.0 | 0.0 | 0.00 | 0.00 | 0.00 | 93 | 1024.4 |
| 20260508220023 | 48 | 96 | 0.0 | 0.0 | 0.00 | 0.00 | 0.00 | 94 | 1024.3 |
| 20260508214517 | 46 | 95 | 0.0 | 0.0 | 0.00 | 0.00 | 0.00 | 95 | 1024.1 |
| 20260508213014 | 43 | 95 | 0.0 | 0.0 | 0.00 | 0.00 | 0.00 | 95 | 1024.0 |
| 20260508211512 | 41 | 96 | 0.0 | 0.0 | 0.00 | 0.00 | 0.00 | 94 | 1023.8 |
| 20260508210013 | 40 | 94 | 0.0 | 0.0 | 0.00 | 0.00 | 0.00 | 93 | 1023.5 |
| 20260508204509 | 40 | 96 | 0.0 | 0.0 | 0.00 | 0.00 | 0.00 | 93 | 1023.4 |
| 20260508203006 | 41 | 95 | 0.0 | 0.0 | 0.00 | 0.00 | 0.00 | 94 | 1023.3 |
| 20260508201505 | 41 | 96 | 0.0 | 0.0 | 0.00 | 0.00 | 0.00 | 93 | 1023.0 |
| 20260508200003 | 40 | 95 | 0.0 | 0.0 | 0.00 | 0.00 | 0.00 | 93 | 1022.8 |
| 20260508194602 | 40 | 96 | 0.0 | 0.0 | 0.00 | 0.00 | 0.00 | 93 | 1022.5 |
| 20260508193109 | 40 | 94 | 0.0 | 0.0 | 0.00 | 0.00 | 0.00 | 93 | 1022.2 |
| 20260508191556 | 40 | 96 | 0.0 | 0.0 | 0.00 | 0.00 | 0.00 | 93 | 1022.0 |
| 20260508190058 | 41 | 94 | 0.0 | 0.0 | 0.00 | 0.00 | 0.00 | 93 | 1021.9 |
| 20260508184602 | 41 | 96 | 0.0 | 0.0 | 0.00 | 0.00 | 0.00 | 93 | 1021.8 |
| 20260508183103 | 41 | 94 | 0.0 | 0.0 | 0.00 | 0.00 | 0.00 | 93 | 1021.7 |
| 20260508181550 | 41 | 96 | 0.0 | 0.0 | 0.00 | 0.00 | 0.00 | 93 | 1021.6 |
| 20260508180050 | 41 | 95 | 0.0 | 0.0 | 0.00 | 0.00 | 0.00 | 93 | 1021.6 |
| 20260508174600 | 41 | 94 | 1.0 | 0.0 | 0.00 | 0.00 | 0.00 | 92 | 1021.5 |
| 20260508173046 | 42 | 96 | 1.0 | 0.0 | 0.00 | 0.00 | 0.00 | 92 | 1021.5 |
| 20260508171545 | 42 | 95 | 0.0 | 0.0 | 0.00 | 0.00 | 0.00 | 92 | 1021.4 |
| 20260508170044 | 42 | 95 | 1.0 | 0.0 | 0.00 | 0.00 | 0.00 | 92 | 1021.4 |
| 20260508164547 | 42 | 96 | 0.0 | 0.0 | 0.00 | 0.00 | 0.00 | 92 | 1021.4 |
| 20260508163106 | 42 | 95 | 0.0 | 0.0 | 0.00 | 0.00 | 0.00 | 92 | 1021.4 |
| 20260508161539 | 43 | 96 | 0.0 | 0.0 | 0.00 | 0.00 | 0.00 | 92 | 1021.3 |
| 20260508160038 | 43 | 96 | 0.0 | 0.0 | 0.00 | 0.00 | 0.00 | 92 | 1021.3 |
| 20260508154537 | 43 | 94 | 0.0 | 0.0 | 0.00 | 0.00 | 0.00 | 92 | 1021.3 |
| 20260508153036 | 43 | 96 | 0.0 | 0.0 | 0.00 | 0.00 | 0.00 | 92 | 1021.3 |
| 20260508151540 | 43 | 96 | 0.0 | 0.0 | 0.00 | 0.00 | 0.00 | 92 | 1021.3 |
| 20260508150033 | 44 | 95 | 0.0 | 0.0 | 0.00 | 0.00 | 0.00 | 91 | 1021.2 |
| 20260508144537 | 44 | 95 | 0.0 | 0.0 | 0.00 | 0.00 | 0.00 | 91 | 1021.2 |
| 20260508143029 | 44 | 96 | 0.0 | 0.0 | 0.00 | 0.00 | 0.00 | 91 | 1021.1 |
| 20260508141528 | 45 | 95 | 0.0 | 0.0 | 0.00 | 0.00 | 0.00 | 91 | 1021.1 |
| 20260508140031 | 45 | 95 | 0.0 | 0.0 | 0.00 | 0.00 | 0.00 | 91 | 1021.1 |
| 20260508134533 | 45 | 96 | 0.0 | 0.0 | 0.00 | 0.00 | 0.00 | 91 | 1021.2 |
| 20260508133025 | 45 | 96 | 0.0 | 0.0 | 0.00 | 0.00 | 0.00 | 90 | 1021.2 |
| 20260508131525 | 45 | 96 | 0.0 | 0.0 | 0.00 | 0.00 | 0.00 | 90 | 1021.2 |
| 20260508130024 | 46 | 95 | 0.0 | 0.0 | 0.00 | 0.00 | 0.00 | 90 | 1021.2 |
| 20260508124524 | 46 | 95 | 0.0 | 0.0 | 0.00 | 0.00 | 0.00 | 90 | 1021.1 |
| 20260508123031 | 46 | 96 | 0.0 | 0.0 | 0.00 | 0.00 | 0.00 | 89 | 1021.2 |
| 20260508121523 | 47 | 96 | 0.0 | 0.0 | 0.00 | 0.00 | 0.00 | 89 | 1021.3 |
| 20260508120022 | 47 | 96 | 0.0 | 0.0 | 0.00 | 0.00 | 0.00 | 88 | 1021.3 |
| 20260508114519 | 48 | 96 | 0.0 | 0.0 | 0.00 | 0.00 | 0.00 | 87 | 1021.1 |
| 20260508113017 | 49 | 95 | 0.0 | 0.0 | 0.00 | 0.00 | 0.00 | 86 | 1020.8 |
| 20260508111517 | 49 | 96 | 0.0 | 0.0 | 0.00 | 0.00 | 0.00 | 85 | 1020.6 |
| 20260508110017 | 50 | 95 | 0.0 | 0.0 | 0.00 | 0.00 | 0.00 | 84 | 1020.5 |
| 20260508104515 | 50 | 95 | 0.0 | 0.0 | 0.00 | 0.00 | 0.00 | 83 | 1020.3 |
| 20260508103014 | 51 | 95 | 0.0 | 0.0 | 0.00 | 0.00 | 0.00 | 81 | 1020.1 |
| 20260508101527 | 52 | 95 | 0.0 | 0.0 | 0.00 | 0.00 | 0.00 | 81 | 1019.9 |
| 20260508100014 | 52 | 95 | 0.0 | 0.0 | 0.00 | 0.00 | 0.00 | 81 | 1019.7 |
| 20260508094514 | 53 | 95 | 0.0 | 0.0 | 0.00 | 0.00 | 0.00 | 77 | 1019.3 |
| 20260508093035 | 54 | 96 | 0.0 | 0.0 | 0.00 | 0.00 | 0.00 | 76 | 1019.0 |
| 20260508091516 | 55 | 96 | 0.0 | 0.0 | 0.00 | 0.00 | 0.00 | 74 | 1018.7 |
| 20260508090026 | 56 | 96 | 0.0 | 0.0 | 0.00 | 0.00 | 0.00 | 70 | 1018.6 |
| 20260508084512 | 57 | 96 | 0.0 | 0.0 | 0.00 | 0.00 | 0.00 | 69 | 1018.4 |
| 20260508083017 | 58 | 96 | 0.0 | 0.0 | 0.00 | 0.00 | 0.00 | 63 | 1018.3 |
| 20260508081512 | 59 | 95 | 0.0 | 0.0 | 0.00 | 0.00 | 0.00 | 59 | 1018.2 |
| 20260508080011 | 61 | 95 | 1.0 | 0.0 | 0.00 | 0.00 | 0.00 | 55 | 1017.9 |
| 20260508074515 | 62 | 96 | 1.0 | 0.0 | 0.00 | 0.00 | 0.00 | 52 | 1017.5 |
| 20260508073011 | 63 | 72 | 1.0 | 0.0 | 0.00 | 0.00 | 0.00 | 50 | 1017.2 |
| 20260508071510 | 65 | 72 | 1.0 | 0.0 | 0.00 | 0.00 | 0.00 | 49 | 1017.0 |
| 20260508070010 | 66 | 72 | 1.0 | 0.0 | 0.00 | 0.00 | 0.00 | 48 | 1016.6 |
| 20260508064512 | 67 | 72 | 0.0 | 0.0 | 0.00 | 0.00 | 0.00 | 47 | 1016.3 |
| 20260508063009 | 69 | 72 | 1.0 | 0.0 | 0.00 | 0.00 | 0.00 | 43 | 1016.2 |
| 20260508061508 | 70 | 72 | 1.0 | 0.0 | 0.00 | 0.00 | 0.00 | 42 | 1016.1 |
| 20260508060007 | 71 | 56 | 1.0 | 0.0 | 0.00 | 0.00 | 0.00 | 40 | 1016.0 |
| 20260508054506 | 71 | 273 | 1.0 | 0.0 | 0.00 | 0.00 | 0.00 | 41 | 1015.9 |
| 20260508053004 | 71 | 59 | 1.0 | 0.0 | 0.00 | 0.00 | 0.00 | 38 | 1016.0 |
| 20260508051503 | 71 | 270 | 2.0 | 0.0 | 0.00 | 0.00 | 0.00 | 40 | 1015.9 |
| 20260508050003 | 72 | 42 | 3.0 | 0.0 | 0.00 | 0.00 | 0.00 | 38 | 1015.6 |
| 20260508044501 | 72 | 32 | 3.0 | 0.0 | 0.00 | 0.00 | 0.00 | 39 | 1015.5 |
| 20260508043100 | 72 | 299 | 2.0 | 0.0 | 0.00 | 0.00 | 0.00 | 37 | 1015.6 |
| 20260508041600 | 72 | 296 | 2.0 | 0.0 | 0.00 | 0.00 | 0.00 | 38 | 1015.8 |
| 20260508040058 | 72 | 32 | 2.0 | 0.0 | 0.00 | 0.00 | 0.00 | 37 | 1015.9 |
| 20260508034601 | 72 | 227 | 2.0 | 0.0 | 0.00 | 0.00 | 0.00 | 35 | 1016.2 |
| 20260508033049 | 71 | 34 | 2.0 | 0.0 | 0.00 | 0.00 | 0.00 | 34 | 1016.6 |
| 20260508031558 | 71 | 61 | 2.0 | 0.0 | 0.00 | 0.00 | 0.00 | 34 | 1016.8 |
| 20260508030059 | 70 | 74 | 2.0 | 0.0 | 0.00 | 0.00 | 0.00 | 34 | 1017.1 |
| 20260508024541 | 69 | 259 | 3.0 | 0.0 | 0.00 | 0.00 | 0.00 | 34 | 1017.2 |
| 20260508023044 | 69 | 246 | 2.0 | 0.0 | 0.00 | 0.00 | 0.00 | 33 | 1017.5 |
| 20260508021537 | 69 | 340 | 2.0 | 0.0 | 0.00 | 0.00 | 0.00 | 32 | 1017.9 |
| 20260508020033 | 68 | 44 | 2.0 | 0.0 | 0.00 | 0.00 | 0.00 | 34 | 1018.3 |
| 20260508014533 | 66 | 38 | 3.0 | 0.0 | 0.00 | 0.00 | 0.00 | 36 | 1018.6 |
| 20260508013028 | 67 | 222 | 2.0 | 0.0 | 0.00 | 0.00 | 0.00 | 33 | 1018.9 |